Time;durP1;ratioP1;P1;durP2;ratioP2;P2;SDS_P1;SDS_P2;PMS_P1;PMS_P2;Temp;Humidity;BMP_temperature;BMP_pressure;BME280_temperature;BME280_humidity;BME280_pressure;Samples;Min_cycle;Max_cycle;Signal;HPM_P1;HPM_P2
2022/11/26 00:02:12;;;;;;;31.15;6.30;;;;;;;;;;5051218;28;20036;-79
2022/11/26 00:04:38;;;;;;;23.83;5.97;;;;;;;;;;5051423;28;20490;-80
2022/11/26 00:07:04;;;;;;;23.92;7.07;;;;;;;;;;5063396;28;20048;-79
2022/11/26 00:09:30;;;;;;;29.90;6.57;;;;;;;;;;5051304;28;20553;-79
2022/11/26 00:11:56;;;;;;;29.90;6.85;;;;;;;;;;5051147;28;21002;-77
2022/11/26 00:14:22;;;;;;;30.80;6.43;;;;;;;;;;5034691;28;20393;-79
2022/11/26 00:16:48;;;;;;;29.38;6.20;;;;;;;;;;5051133;28;20440;-80
2022/11/26 00:19:15;;;;;;;23.15;6.18;;;;;;;;;;5051194;28;20067;-79
2022/11/26 00:21:42;;;;;;;26.95;6.80;;;;;;;;;;5053754;28;20048;-79
2022/11/26 00:24:19;;;;;;;21.08;7.07;;;;;;;;;;5055446;28;20110;-77
2022/11/26 00:26:46;;;;;;;24.25;6.40;;;;;;;;;;5046434;28;20124;-77
2022/11/26 00:29:12;;;;;;;21.08;5.95;;;;;;;;;;5016569;28;20045;-78
2022/11/26 00:31:38;;;;;;;27.75;6.55;;;;;;;;;;5055129;28;20049;-79
2022/11/26 00:34:04;;;;;;;26.25;6.53;;;;;;;;;;5056283;28;20095;-80
2022/11/26 00:36:31;;;;;;;26.15;7.10;;;;;;;;;;5055210;28;20137;-80
2022/11/26 00:39:05;;;;;;;27.52;6.20;;;;;;;;;;5043685;28;20046;-77
2022/11/26 00:41:37;;;;;;;24.60;5.75;;;;;;;;;;5053133;28;20052;-77
2022/11/26 00:44:03;;;;;;;25.20;6.97;;;;;;;;;;5038076;28;20045;-77
2022/11/26 00:46:29;;;;;;;21.33;5.70;;;;;;;;;;5056019;28;20041;-80
2022/11/26 00:48:55;;;;;;;28.48;6.47;;;;;;;;;;5037895;28;20049;-79
2022/11/26 00:51:28;;;;;;;18.33;5.97;;;;;;;;;;5054418;28;20037;-80
2022/11/26 00:53:59;;;;;;;25.00;6.00;;;;;;;;;;5054575;28;20118;-79
2022/11/26 00:56:25;;;;;;;22.40;6.45;;;;;;;;;;5038131;28;20044;-78
2022/11/26 00:58:52;;;;;;;29.45;6.18;;;;;;;;;;5047529;28;20045;-80
2022/11/26 01:01:26;;;;;;;27.67;7.07;;;;;;;;;;5047646;28;20049;-79
2022/11/26 01:03:52;;;;;;;25.52;6.35;;;;;;;;;;5037514;28;20041;-79
2022/11/26 01:06:21;;;;;;;27.88;7.25;;;;;;;;;;5037535;28;20055;-77
2022/11/26 01:08:47;;;;;;;26.35;7.00;;;;;;;;;;5053706;28;20081;-77
2022/11/26 01:11:15;;;;;;;26.45;7.03;;;;;;;;;;5043620;28;20044;-77
2022/11/26 01:13:42;;;;;;;28.65;6.88;;;;;;;;;;5050998;28;20051;-77
2022/11/26 01:16:27;;;;;;;31.17;7.13;;;;;;;;;;5054850;28;20033;-80
2022/11/26 01:18:54;;;;;;;24.20;7.20;;;;;;;;;;5054117;28;20559;-77
2022/11/26 01:21:20;;;;;;;22.20;7.00;;;;;;;;;;5039992;28;20280;-77
2022/11/26 01:23:46;;;;;;;25.75;7.18;;;;;;;;;;5053690;28;20048;-77
2022/11/26 01:26:17;;;;;;;19.27;7.38;;;;;;;;;;5053933;28;20127;-77
2022/11/26 01:28:43;;;;;;;23.35;7.43;;;;;;;;;;5053641;28;20049;-77
2022/11/26 01:31:17;;;;;;;30.75;7.75;;;;;;;;;;5053169;28;20068;-77
2022/11/26 01:33:44;;;;;;;25.15;7.72;;;;;;;;;;5053847;28;20473;-77
2022/11/26 01:36:19;;;;;;;27.55;8.20;;;;;;;;;;5052972;28;20179;-77
2022/11/26 01:38:46;;;;;;;33.00;8.13;;;;;;;;;;5053649;28;20052;-77
2022/11/26 01:41:16;;;;;;;31.73;8.75;;;;;;;;;;5036872;28;20399;-77
2022/11/26 01:43:42;;;;;;;30.23;8.43;;;;;;;;;;5054273;28;20045;-77
2022/11/26 01:46:25;;;;;;;29.40;8.15;;;;;;;;;;5054872;28;20055;-77
2022/11/26 01:48:52;;;;;;;34.72;9.20;;;;;;;;;;5055521;28;20097;-80
2022/11/26 01:51:25;;;;;;;24.35;8.50;;;;;;;;;;5053507;28;20052;-80
2022/11/26 01:53:53;;;;;;;33.83;9.32;;;;;;;;;;5054986;28;20537;-77
2022/11/26 01:56:19;;;;;;;31.30;9.40;;;;;;;;;;5053432;28;20051;-77
2022/11/26 01:58:51;;;;;;;26.15;9.25;;;;;;;;;;5054767;28;20075;-77
2022/11/26 02:01:17;;;;;;;32.00;9.70;;;;;;;;;;5053216;28;20049;-79
2022/11/26 02:03:49;;;;;;;24.90;9.00;;;;;;;;;;5054829;28;20128;-80
2022/11/26 02:06:18;;;;;;;32.58;9.73;;;;;;;;;;5054813;28;20045;-77
2022/11/26 02:08:45;;;;;;;32.28;9.93;;;;;;;;;;5053157;28;20040;-77
2022/11/26 02:11:14;;;;;;;33.42;9.68;;;;;;;;;;5052733;28;20825;-77
2022/11/26 02:13:40;;;;;;;31.35;10.00;;;;;;;;;;5037712;28;20091;-79
2022/11/26 02:16:12;;;;;;;37.00;10.48;;;;;;;;;;5052831;28;20124;-80
2022/11/26 02:18:41;;;;;;;38.03;10.10;;;;;;;;;;5053367;28;20051;-80
2022/11/26 02:21:14;;;;;;;27.08;10.15;;;;;;;;;;5086120;28;20087;-80
2022/11/26 02:23:43;;;;;;;27.10;9.70;;;;;;;;;;5052836;28;20081;-77
2022/11/26 02:26:28;;;;;;;33.95;9.85;;;;;;;;;;5086191;28;20037;-77
2022/11/26 02:29:13;;;;;;;33.78;9.85;;;;;;;;;;5052357;28;20044;-77
2022/11/26 02:31:39;;;;;;;35.42;9.68;;;;;;;;;;5040194;28;20044;-77
2022/11/26 02:34:10;;;;;;;31.88;10.57;;;;;;;;;;5036017;28;20116;-77
2022/11/26 02:36:41;;;;;;;33.88;11.15;;;;;;;;;;5046997;28;20060;-77
2022/11/26 02:39:14;;;;;;;33.55;10.88;;;;;;;;;;5029696;28;20091;-77
2022/11/26 02:41:42;;;;;;;25.58;10.38;;;;;;;;;;5053935;28;20382;-77
2022/11/26 02:44:08;;;;;;;33.50;10.25;;;;;;;;;;5052221;28;20048;-77
2022/11/26 02:46:35;;;;;;;29.58;10.25;;;;;;;;;;5052089;28;20040;-77
2022/11/26 02:49:02;;;;;;;31.17;10.30;;;;;;;;;;5053103;28;20049;-77
2022/11/26 02:51:28;;;;;;;31.77;11.50;;;;;;;;;;5052030;28;20044;-77
2022/11/26 02:53:55;;;;;;;33.58;11.55;;;;;;;;;;5053588;28;20075;-77
2022/11/26 02:56:23;;;;;;;29.75;11.00;;;;;;;;;;5035959;28;20068;-77
2022/11/26 02:58:50;;;;;;;29.80;10.73;;;;;;;;;;5042965;28;20490;-76
2022/11/26 03:01:20;;;;;;;32.20;11.15;;;;;;;;;;5041109;28;20418;-77
2022/11/26 03:03:49;;;;;;;37.20;11.00;;;;;;;;;;5038669;28;20040;-77
2022/11/26 03:06:16;;;;;;;36.10;12.00;;;;;;;;;;5050780;28;20056;-77
2022/11/26 03:08:44;;;;;;;30.73;12.18;;;;;;;;;;5051872;28;20604;-77
2022/11/26 03:11:10;;;;;;;30.35;12.32;;;;;;;;;;5051897;28;20051;-77
2022/11/26 03:13:36;;;;;;;33.83;12.20;;;;;;;;;;5035063;28;20124;-77
2022/11/26 03:16:03;;;;;;;41.63;12.95;;;;;;;;;;5053005;28;20445;-77
2022/11/26 03:18:29;;;;;;;32.45;11.80;;;;;;;;;;5051828;28;20045;-77
2022/11/26 03:20:55;;;;;;;33.75;12.02;;;;;;;;;;5035271;28;20482;-77
2022/11/26 03:23:21;;;;;;;35.92;11.48;;;;;;;;;;5052741;28;20393;-77
2022/11/26 03:25:47;;;;;;;33.17;11.77;;;;;;;;;;5052626;28;20125;-77
2022/11/26 03:28:13;;;;;;;32.13;10.98;;;;;;;;;;5056066;28;20473;-77
2022/11/26 03:30:39;;;;;;;39.30;13.02;;;;;;;;;;5051887;28;20390;-77
2022/11/26 03:33:05;;;;;;;39.38;12.90;;;;;;;;;;5052324;28;20145;-76
2022/11/26 03:35:32;;;;;;;35.42;12.63;;;;;;;;;;5068233;28;20039;-77
2022/11/26 03:37:58;;;;;;;36.00;11.65;;;;;;;;;;5052484;28;20090;-77
2022/11/26 03:40:24;;;;;;;34.20;12.40;;;;;;;;;;5034870;28;20371;-77
2022/11/26 03:42:50;;;;;;;33.00;12.70;;;;;;;;;;5051485;28;20041;-77
2022/11/26 03:45:16;;;;;;;39.28;12.40;;;;;;;;;;5047127;28;20182;-77
2022/11/26 03:47:42;;;;;;;32.65;13.75;;;;;;;;;;5067457;28;20039;-76
2022/11/26 03:50:08;;;;;;;35.97;12.85;;;;;;;;;;5051091;28;20045;-77
2022/11/26 03:52:34;;;;;;;39.53;13.88;;;;;;;;;;5052852;28;20037;-77
2022/11/26 03:55:00;;;;;;;33.20;12.85;;;;;;;;;;5051720;28;20075;-77
2022/11/26 03:57:27;;;;;;;39.35;13.43;;;;;;;;;;5051843;28;20043;-77
2022/11/26 03:59:53;;;;;;;39.28;13.75;;;;;;;;;;5051356;28;20053;-77
2022/11/26 04:02:19;;;;;;;33.63;13.30;;;;;;;;;;5050562;28;20044;-77
2022/11/26 04:04:45;;;;;;;39.00;13.68;;;;;;;;;;5051464;28;20095;-80
2022/11/26 04:07:11;;;;;;;45.58;14.00;;;;;;;;;;5051017;28;20397;-77
2022/11/26 04:09:37;;;;;;;45.65;14.55;;;;;;;;;;5059680;28;20099;-77
2022/11/26 04:12:03;;;;;;;38.08;15.07;;;;;;;;;;5059072;28;20041;-77
2022/11/26 04:14:29;;;;;;;35.42;13.50;;;;;;;;;;5052106;28;20135;-80
2022/11/26 04:16:55;;;;;;;39.78;15.05;;;;;;;;;;5040314;28;20048;-77
2022/11/26 04:19:21;;;;;;;40.42;14.38;;;;;;;;;;5048012;28;20385;-77
2022/11/26 04:21:47;;;;;;;41.22;14.52;;;;;;;;;;5051434;28;20295;-80
2022/11/26 04:24:13;;;;;;;45.10;15.57;;;;;;;;;;5052801;28;20037;-80
2022/11/26 04:26:39;;;;;;;47.60;15.15;;;;;;;;;;5052321;28;20055;-77
2022/11/26 04:29:06;;;;;;;44.50;14.77;;;;;;;;;;5051134;28;20060;-77
2022/11/26 04:31:32;;;;;;;41.97;15.50;;;;;;;;;;5017790;28;20033;-77
2022/11/26 04:33:58;;;;;;;37.28;14.07;;;;;;;;;;5050767;28;20045;-77
2022/11/26 04:36:24;;;;;;;47.30;15.90;;;;;;;;;;5050312;28;20051;-77
2022/11/26 04:38:50;;;;;;;45.30;15.43;;;;;;;;;;5051076;28;20094;-79
2022/11/26 04:41:16;;;;;;;43.80;15.52;;;;;;;;;;5050580;28;20053;-80
2022/11/26 04:43:42;;;;;;;41.40;14.93;;;;;;;;;;5051021;28;20083;-77
2022/11/26 04:46:08;;;;;;;39.75;14.02;;;;;;;;;;5051062;28;20399;-77
2022/11/26 04:48:34;;;;;;;45.25;14.65;;;;;;;;;;5051454;28;20037;-77
2022/11/26 04:51:01;;;;;;;43.75;15.52;;;;;;;;;;5050849;28;20045;-77
2022/11/26 04:53:27;;;;;;;46.63;15.85;;;;;;;;;;5051687;28;20374;-77
2022/11/26 04:55:53;;;;;;;36.53;14.38;;;;;;;;;;5050895;28;20390;-77
2022/11/26 04:58:19;;;;;;;43.60;15.55;;;;;;;;;;5033853;28;20048;-77
2022/11/26 05:00:46;;;;;;;51.95;15.02;;;;;;;;;;5049972;28;20045;-77
2022/11/26 05:03:12;;;;;;;48.03;15.95;;;;;;;;;;5044739;28;20041;-77
2022/11/26 05:05:38;;;;;;;41.95;15.10;;;;;;;;;;5033160;28;20041;-77
2022/11/26 05:08:05;;;;;;;43.65;14.73;;;;;;;;;;5052111;28;20085;-77
2022/11/26 05:10:31;;;;;;;49.70;16.25;;;;;;;;;;5054517;28;20033;-77
2022/11/26 05:12:57;;;;;;;44.25;14.88;;;;;;;;;;5054248;28;20041;-77
2022/11/26 05:15:23;;;;;;;46.25;14.88;;;;;;;;;;5053835;28;20498;-77
2022/11/26 05:17:49;;;;;;;48.13;15.30;;;;;;;;;;5054281;28;20087;-77
2022/11/26 05:20:15;;;;;;;40.85;15.60;;;;;;;;;;5055219;28;20128;-77
2022/11/26 05:22:42;;;;;;;37.63;15.07;;;;;;;;;;5053823;28;20041;-77
2022/11/26 05:25:08;;;;;;;46.03;14.88;;;;;;;;;;5053907;28;20084;-77
2022/11/26 05:27:34;;;;;;;40.70;14.20;;;;;;;;;;5040696;28;20040;-77
2022/11/26 05:30:01;;;;;;;45.70;15.95;;;;;;;;;;5053579;28;20116;-76
2022/11/26 05:32:27;;;;;;;49.80;15.13;;;;;;;;;;5053378;28;20120;-77
2022/11/26 05:34:53;;;;;;;50.85;15.68;;;;;;;;;;5053675;28;20037;-77
2022/11/26 05:37:19;;;;;;;45.63;16.05;;;;;;;;;;5054493;28;20061;-76
2022/11/26 05:39:45;;;;;;;40.45;15.18;;;;;;;;;;5020341;28;20048;-77
2022/11/26 05:42:11;;;;;;;50.10;15.45;;;;;;;;;;5053505;28;20151;-77
2022/11/26 05:44:37;;;;;;;41.50;15.60;;;;;;;;;;5053016;28;20045;-77
2022/11/26 05:47:04;;;;;;;50.08;16.77;;;;;;;;;;5070053;28;20048;-77
2022/11/26 05:49:30;;;;;;;40.88;16.30;;;;;;;;;;5086443;28;20409;-80
2022/11/26 05:51:56;;;;;;;41.33;16.05;;;;;;;;;;5053439;28;20442;-80
2022/11/26 05:54:22;;;;;;;40.13;15.38;;;;;;;;;;5042805;28;20064;-80
2022/11/26 05:56:48;;;;;;;46.78;16.77;;;;;;;;;;5049760;28;20045;-80
2022/11/26 05:59:14;;;;;;;41.80;16.30;;;;;;;;;;5054532;28;20047;-80
2022/11/26 06:01:40;;;;;;;45.83;17.13;;;;;;;;;;5053032;28;20043;-77
2022/11/26 06:04:06;;;;;;;48.85;17.83;;;;;;;;;;5040935;28;20116;-77
2022/11/26 06:06:32;;;;;;;49.08;17.05;;;;;;;;;;5052741;28;20053;-80
2022/11/26 06:08:58;;;;;;;46.30;16.83;;;;;;;;;;5036586;28;20045;-81
2022/11/26 06:11:24;;;;;;;49.75;17.33;;;;;;;;;;5052876;28;20033;-77
2022/11/26 06:13:50;;;;;;;54.63;17.85;;;;;;;;;;5083858;28;20037;-77
2022/11/26 06:16:17;;;;;;;50.53;18.33;;;;;;;;;;5025193;28;20392;-76
2022/11/26 06:18:43;;;;;;;47.40;17.73;;;;;;;;;;5052051;28;20048;-77
2022/11/26 06:21:09;;;;;;;45.42;17.25;;;;;;;;;;5052692;28;20041;-77
2022/11/26 06:23:35;;;;;;;51.65;18.60;;;;;;;;;;5035753;28;20130;-77
2022/11/26 06:26:06;;;;;;;54.97;17.95;;;;;;;;;;5052416;28;20041;-77
2022/11/26 06:28:32;;;;;;;49.80;18.45;;;;;;;;;;5052228;28;20045;-77
2022/11/26 06:30:58;;;;;;;53.65;19.95;;;;;;;;;;5053849;28;20036;-80
2022/11/26 06:33:24;;;;;;;57.78;18.70;;;;;;;;;;5052873;28;20036;-80
2022/11/26 06:35:50;;;;;;;42.30;17.45;;;;;;;;;;5052833;28;20048;-77
2022/11/26 06:38:16;;;;;;;44.75;19.13;;;;;;;;;;5052266;28;20053;-77
2022/11/26 06:40:42;;;;;;;51.67;19.83;;;;;;;;;;5052086;28;20115;-77
2022/11/26 06:43:08;;;;;;;48.95;19.42;;;;;;;;;;5085674;28;20048;-77
2022/11/26 06:45:34;;;;;;;50.63;19.67;;;;;;;;;;5053271;28;20037;-77
2022/11/26 06:48:00;;;;;;;56.10;18.30;;;;;;;;;;5053417;28;20041;-77
2022/11/26 06:50:26;;;;;;;46.00;19.92;;;;;;;;;;5053470;28;20044;-77
2022/11/26 06:52:53;;;;;;;50.65;19.13;;;;;;;;;;5052016;28;20045;-77
2022/11/26 06:55:19;;;;;;;55.28;19.58;;;;;;;;;;5052106;28;20080;-77
2022/11/26 06:57:48;;;;;;;49.67;19.77;;;;;;;;;;5041976;28;20506;-77
2022/11/26 07:00:14;;;;;;;55.67;19.83;;;;;;;;;;5049903;28;20398;-77
2022/11/26 07:02:42;;;;;;;55.97;20.77;;;;;;;;;;5052933;28;20044;-77
2022/11/26 07:05:08;;;;;;;56.10;19.88;;;;;;;;;;5051724;28;20048;-77
2022/11/26 07:07:36;;;;;;;60.28;20.83;;;;;;;;;;5051466;28;20151;-77
2022/11/26 07:10:02;;;;;;;66.05;22.13;;;;;;;;;;5052911;28;20494;-77
2022/11/26 07:12:29;;;;;;;55.83;20.48;;;;;;;;;;5051730;28;20052;-77
2022/11/26 07:14:55;;;;;;;56.50;20.70;;;;;;;;;;5051645;28;20124;-77
2022/11/26 07:17:21;;;;;;;55.13;20.60;;;;;;;;;;5060046;28;20037;-77
2022/11/26 07:19:47;;;;;;;52.53;20.50;;;;;;;;;;5071447;28;20509;-77
2022/11/26 07:22:13;;;;;;;59.08;21.58;;;;;;;;;;5067730;28;20440;-77
2022/11/26 07:24:39;;;;;;;62.20;20.48;;;;;;;;;;5051567;28;20131;-77
2022/11/26 07:27:05;;;;;;;57.67;19.13;;;;;;;;;;5053177;28;20037;-81
2022/11/26 07:29:31;;;;;;;57.33;19.40;;;;;;;;;;5066601;28;20041;-80
2022/11/26 07:31:57;;;;;;;59.15;20.20;;;;;;;;;;5070650;28;20051;-77
2022/11/26 07:34:23;;;;;;;52.47;20.17;;;;;;;;;;5071507;28;20044;-77
2022/11/26 07:36:49;;;;;;;54.88;21.05;;;;;;;;;;5070971;28;20497;-80
2022/11/26 07:39:15;;;;;;;50.88;19.77;;;;;;;;;;5071192;28;20044;-80
2022/11/26 07:41:41;;;;;;;54.15;19.58;;;;;;;;;;5070912;28;20055;-80
2022/11/26 07:44:11;;;;;;;51.03;19.83;;;;;;;;;;5071078;28;20049;-80
2022/11/26 07:46:37;;;;;;;52.22;20.05;;;;;;;;;;5071570;28;20051;-80
2022/11/26 07:49:03;;;;;;;53.60;19.20;;;;;;;;;;5056962;28;20047;-80
2022/11/26 07:51:30;;;;;;;50.03;19.95;;;;;;;;;;5070661;28;20044;-80
2022/11/26 07:53:58;;;;;;;48.40;18.23;;;;;;;;;;5050644;28;20033;-80
2022/11/26 07:56:24;;;;;;;52.13;18.67;;;;;;;;;;5050960;28;20120;-80
2022/11/26 07:58:50;;;;;;;46.67;18.92;;;;;;;;;;5050692;28;20047;-80
2022/11/26 08:01:21;;;;;;;52.28;18.75;;;;;;;;;;5051259;28;20559;-81
2022/11/26 08:03:48;;;;;;;47.38;17.65;;;;;;;;;;5050529;28;20043;-80
2022/11/26 08:06:15;;;;;;;52.83;19.02;;;;;;;;;;5050947;28;20123;-77
2022/11/26 08:08:41;;;;;;;47.25;18.73;;;;;;;;;;5050558;28;20454;-77
2022/11/26 08:11:27;;;;;;;51.15;17.85;;;;;;;;;;5065639;28;20394;-77
2022/11/26 08:13:58;;;;;;;45.42;18.58;;;;;;;;;;5070400;28;20123;-77
2022/11/26 08:16:25;;;;;;;49.22;18.05;;;;;;;;;;5070841;28;20116;-77
2022/11/26 08:18:54;;;;;;;40.17;16.98;;;;;;;;;;5070650;28;20071;-80
2022/11/26 08:21:21;;;;;;;46.97;17.02;;;;;;;;;;5037155;28;20128;-81
2022/11/26 08:23:47;;;;;;;40.10;16.98;;;;;;;;;;5062988;28;20123;-80
2022/11/26 08:26:14;;;;;;;42.33;16.27;;;;;;;;;;5070640;28;20040;-80
2022/11/26 08:28:44;;;;;;;40.38;15.57;;;;;;;;;;5063691;28;20124;-80
2022/11/26 08:31:10;;;;;;;30.13;14.68;;;;;;;;;;5068035;28;20068;-80
2022/11/26 08:33:37;;;;;;;36.15;13.27;;;;;;;;;;5054133;28;20079;-81
2022/11/26 08:36:03;;;;;;;33.47;13.32;;;;;;;;;;5070655;28;20549;-77
2022/11/26 08:38:30;;;;;;;33.63;12.85;;;;;;;;;;5070458;28;20091;-77
2022/11/26 08:41:10;;;;;;;35.45;12.85;;;;;;;;;;5071477;28;20048;-81
2022/11/26 08:43:36;;;;;;;29.90;12.80;;;;;;;;;;5081969;28;20093;-81
2022/11/26 08:46:02;;;;;;;29.23;12.32;;;;;;;;;;5074345;28;20037;-81
2022/11/26 08:48:29;;;;;;;25.42;10.63;;;;;;;;;;5075686;28;20067;-80
2022/11/26 08:51:13;;;;;;;30.00;11.45;;;;;;;;;;5075945;28;20044;-81
2022/11/26 08:53:39;;;;;;;33.45;10.82;;;;;;;;;;5039849;28;20068;-80
2022/11/26 08:56:06;;;;;;;27.55;10.55;;;;;;;;;;5055230;28;20037;-81
2022/11/26 08:58:33;;;;;;;22.27;8.77;;;;;;;;;;5054356;28;20044;-81
2022/11/26 09:00:59;;;;;;;21.95;9.63;;;;;;;;;;5037764;28;20075;-81
2022/11/26 09:03:25;;;;;;;23.70;8.25;;;;;;;;;;5055608;28;20131;-81
2022/11/26 09:05:51;;;;;;;18.83;8.73;;;;;;;;;;5054323;28;20508;-80
2022/11/26 09:08:17;;;;;;;20.25;8.45;;;;;;;;;;5055573;28;20045;-78
2022/11/26 09:10:52;;;;;;;19.67;8.27;;;;;;;;;;5055055;28;20033;-78
2022/11/26 09:13:18;;;;;;;21.85;8.57;;;;;;;;;;5054393;28;20041;-78
2022/11/26 09:15:44;;;;;;;25.40;8.98;;;;;;;;;;5055176;28;20117;-78
2022/11/26 09:18:11;;;;;;;19.55;8.35;;;;;;;;;;5054542;28;20045;-77
2022/11/26 09:20:37;;;;;;;27.05;8.43;;;;;;;;;;5054069;28;20389;-77
2022/11/26 09:23:03;;;;;;;19.92;7.68;;;;;;;;;;5053545;28;20033;-77
2022/11/26 09:25:29;;;;;;;22.13;8.45;;;;;;;;;;5054806;28;20048;-77
2022/11/26 09:27:55;;;;;;;23.77;8.25;;;;;;;;;;5053566;28;20033;-77
2022/11/26 09:30:21;;;;;;;28.88;8.18;;;;;;;;;;5053824;28;20041;-77
2022/11/26 09:32:47;;;;;;;21.65;8.38;;;;;;;;;;5054659;28;20029;-77
2022/11/26 09:35:13;;;;;;;21.17;8.40;;;;;;;;;;5054263;28;20386;-77
2022/11/26 09:37:39;;;;;;;23.50;8.48;;;;;;;;;;5053449;28;20107;-77
2022/11/26 09:40:05;;;;;;;27.38;8.98;;;;;;;;;;5037283;28;20158;-80
2022/11/26 09:42:38;;;;;;;27.05;9.18;;;;;;;;;;5053331;28;20053;-80
2022/11/26 09:45:10;;;;;;;29.60;9.50;;;;;;;;;;5041053;28;20041;-79
2022/11/26 09:47:39;;;;;;;25.88;9.73;;;;;;;;;;5053508;28;20037;-80
2022/11/26 09:50:05;;;;;;;28.00;9.75;;;;;;;;;;5036544;28;20429;-80
2022/11/26 09:52:37;;;;;;;29.55;9.63;;;;;;;;;;5053350;28;20037;-77
2022/11/26 09:55:11;;;;;;;25.38;9.80;;;;;;;;;;5052126;28;20390;-76
2022/11/26 09:57:48;;;;;;;23.45;9.60;;;;;;;;;;5054477;28;20072;-77
2022/11/26 10:00:23;;;;;;;28.40;11.35;;;;;;;;;;5054381;28;20116;-77
2022/11/26 10:02:51;;;;;;;26.52;9.95;;;;;;;;;;5043341;28;20038;-77
2022/11/26 10:05:17;;;;;;;25.77;10.48;;;;;;;;;;5050755;28;20071;-77
2022/11/26 10:08:07;;;;;;;29.77;11.68;;;;;;;;;;5069851;28;20041;-77
2022/11/26 10:10:42;;;;;;;23.92;10.88;;;;;;;;;;5036619;28;20115;-78
2022/11/26 10:13:08;;;;;;;29.98;11.88;;;;;;;;;;5052590;28;20044;-78
2022/11/26 10:15:37;;;;;;;32.70;11.63;;;;;;;;;;5053094;28;20060;-80
2022/11/26 10:18:28;;;;;;;33.67;11.95;;;;;;;;;;5053331;28;20494;-81
2022/11/26 10:20:59;;;;;;;24.17;11.38;;;;;;;;;;5086408;28;20033;-80
2022/11/26 10:23:31;;;;;;;32.17;11.45;;;;;;;;;;5053154;28;20045;-80
2022/11/26 10:26:11;;;;;;;30.15;11.90;;;;;;;;;;5052571;28;20482;-80
2022/11/26 10:28:43;;;;;;;28.08;11.52;;;;;;;;;;5036223;28;20045;-77
2022/11/26 10:31:14;;;;;;;38.10;15.90;;;;;;;;;;5035693;28;20080;-78
2022/11/26 10:34:03;;;;;;;29.23;13.55;;;;;;;;;;5053161;28;20040;-81
2022/11/26 10:36:34;;;;;;;28.58;12.45;;;;;;;;;;5046477;28;20116;-79
2022/11/26 10:39:00;;;;;;;32.28;14.70;;;;;;;;;;5048300;28;20043;-80
2022/11/26 10:41:28;;;;;;;34.88;14.50;;;;;;;;;;5053080;28;20049;-79
2022/11/26 10:43:55;;;;;;;35.10;14.73;;;;;;;;;;5040711;28;20056;-81
2022/11/26 10:46:30;;;;;;;32.72;12.95;;;;;;;;;;5047777;28;20049;-80
2022/11/26 10:49:14;;;;;;;32.57;12.67;;;;;;;;;;5046238;28;20092;-80
2022/11/26 10:51:40;;;;;;;32.33;13.45;;;;;;;;;;5052684;28;20398;-81
2022/11/26 10:54:19;;;;;;;33.15;12.32;;;;;;;;;;5051788;28;20048;-81
2022/11/26 10:56:46;;;;;;;33.72;13.43;;;;;;;;;;5035807;28;20040;-80
2022/11/26 10:59:39;;;;;;;31.00;13.68;;;;;;;;;;5068598;28;20076;-80
2022/11/26 11:02:24;;;;;;;32.22;15.25;;;;;;;;;;5051702;28;20117;-80
2022/11/26 11:04:55;;;;;;;32.58;15.63;;;;;;;;;;5051642;28;20049;-80
2022/11/26 11:07:36;;;;;;;30.15;12.50;;;;;;;;;;5051696;28;20080;-80
2022/11/26 11:10:08;;;;;;;30.35;12.80;;;;;;;;;;5034970;28;20045;-80
2022/11/26 11:12:42;;;;;;;29.65;11.45;;;;;;;;;;5039403;28;20076;-80
2022/11/26 11:15:27;;;;;;;31.98;13.30;;;;;;;;;;5035101;28;20498;-80
2022/11/26 11:18:04;;;;;;;36.33;12.10;;;;;;;;;;5051827;28;20073;-80
2022/11/26 11:20:32;;;;;;;29.60;11.90;;;;;;;;;;5034980;28;20045;-80
2022/11/26 11:23:00;;;;;;;34.78;11.70;;;;;;;;;;5052929;28;20037;-80
2022/11/26 11:25:31;;;;;;;34.83;12.52;;;;;;;;;;5052412;28;20450;-80
2022/11/26 11:28:18;;;;;;;39.00;12.35;;;;;;;;;;5040253;28;20386;-81
2022/11/26 11:30:45;;;;;;;34.17;12.52;;;;;;;;;;5051940;28;20494;-80
2022/11/26 11:33:22;;;;;;;37.03;12.68;;;;;;;;;;5051584;28;20041;-80
2022/11/26 11:36:06;;;;;;;34.85;12.50;;;;;;;;;;5035018;28;20041;-80
2022/11/26 11:38:34;;;;;;;30.63;13.20;;;;;;;;;;5051427;28;20057;-80
2022/11/26 11:41:03;;;;;;;32.20;12.00;;;;;;;;;;5051410;28;20140;-80
2022/11/26 11:43:34;;;;;;;35.15;11.68;;;;;;;;;;5035147;28;20045;-81
2022/11/26 11:46:03;;;;;;;34.67;11.98;;;;;;;;;;5052039;28;20041;-81
2022/11/26 11:48:42;;;;;;;30.08;12.93;;;;;;;;;;5052967;28;20052;-81
2022/11/26 11:51:23;;;;;;;31.45;13.00;;;;;;;;;;5051666;28;20056;-80
2022/11/26 11:54:13;;;;;;;34.50;12.10;;;;;;;;;;5051943;28;20075;-81
2022/11/26 11:56:52;;;;;;;32.28;12.35;;;;;;;;;;5014800;28;20493;-81
2022/11/26 11:59:21;;;;;;;35.03;12.55;;;;;;;;;;5057334;28;20101;-81
2022/11/26 12:01:56;;;;;;;30.10;12.30;;;;;;;;;;5062430;28;20033;-81
2022/11/26 12:04:35;;;;;;;33.80;12.57;;;;;;;;;;5069887;28;20489;-78
2022/11/26 12:07:01;;;;;;;30.50;12.10;;;;;;;;;;5071203;28;20066;-79
2022/11/26 12:09:27;;;;;;;26.05;10.77;;;;;;;;;;5053665;28;20047;-78
2022/11/26 12:11:53;;;;;;;30.33;10.55;;;;;;;;;;5051374;28;20033;-78
2022/11/26 12:14:22;;;;;;;34.05;10.88;;;;;;;;;;5064659;28;20053;-78
2022/11/26 12:16:50;;;;;;;31.13;10.23;;;;;;;;;;5035363;28;20040;-78
2022/11/26 12:19:36;;;;;;;21.50;9.63;;;;;;;;;;5057484;28;20179;-79
2022/11/26 12:22:24;;;;;;;29.40;9.70;;;;;;;;;;5077923;28;20037;-81
2022/11/26 12:24:56;;;;;;;31.27;9.95;;;;;;;;;;5077493;28;20041;-81
2022/11/26 12:27:25;;;;;;;29.33;9.88;;;;;;;;;;5078717;28;20041;-81
2022/11/26 12:30:04;;;;;;;20.52;9.23;;;;;;;;;;5060957;28;20128;-81
2022/11/26 12:32:36;;;;;;;26.42;9.43;;;;;;;;;;5068549;28;20036;-78
2022/11/26 12:35:25;;;;;;;27.58;9.65;;;;;;;;;;5077386;28;20039;-79
2022/11/26 12:37:53;;;;;;;26.55;9.57;;;;;;;;;;5072382;28;20123;-78
2022/11/26 12:40:19;;;;;;;28.45;11.15;;;;;;;;;;5063440;28;20626;-79
2022/11/26 12:42:48;;;;;;;24.98;9.35;;;;;;;;;;5066803;28;20066;-79
2022/11/26 12:45:27;;;;;;;26.10;10.00;;;;;;;;;;5076171;28;20489;-79
2022/11/26 12:47:58;;;;;;;27.23;10.15;;;;;;;;;;5077918;28;20044;-78
2022/11/26 12:50:43;;;;;;;26.08;9.98;;;;;;;;;;5077210;28;20482;-78
2022/11/26 12:53:16;;;;;;;27.10;10.95;;;;;;;;;;5062718;28;20045;-78
2022/11/26 12:55:45;;;;;;;29.40;10.55;;;;;;;;;;5040915;28;20045;-78
2022/11/26 12:58:18;;;;;;;25.52;9.65;;;;;;;;;;5070785;28;20044;-78
2022/11/26 13:00:44;;;;;;;29.42;10.77;;;;;;;;;;5043777;28;20040;-78
2022/11/26 13:03:14;;;;;;;26.17;10.48;;;;;;;;;;5057325;28;20044;-78
2022/11/26 13:05:58;;;;;;;26.90;10.80;;;;;;;;;;5057294;28;20040;-78
2022/11/26 13:08:24;;;;;;;24.60;10.48;;;;;;;;;;5057224;28;20431;-81
2022/11/26 13:10:59;;;;;;;30.02;10.88;;;;;;;;;;5057287;28;20495;-81
2022/11/26 13:13:44;;;;;;;25.77;9.88;;;;;;;;;;5057255;28;20053;-81
2022/11/26 13:16:42;;;;;;;29.65;11.80;;;;;;;;;;5024931;28;20041;-81
2022/11/26 13:19:17;;;;;;;26.88;10.65;;;;;;;;;;5039382;28;20515;-81
2022/11/26 13:22:07;;;;;;;27.93;10.37;;;;;;;;;;5057425;28;20044;-81
2022/11/26 13:24:39;;;;;;;64.05;24.95;;;;;;;;;;5030486;28;20053;-78
2022/11/26 13:27:25;;;;;;;31.90;12.35;;;;;;;;;;5050320;28;20089;-79
2022/11/26 13:30:00;;;;;;;30.15;10.38;;;;;;;;;;5053961;28;20098;-79
2022/11/26 13:32:52;;;;;;;30.38;11.23;;;;;;;;;;5053503;28;20046;-79
2022/11/26 13:35:18;;;;;;;23.50;9.88;;;;;;;;;;5053573;28;20049;-79
2022/11/26 13:38:09;;;;;;;25.70;10.38;;;;;;;;;;5053292;28;20049;-79
2022/11/26 13:40:58;;;;;;;35.08;13.98;;;;;;;;;;5053632;28;20049;-81
2022/11/26 13:43:34;;;;;;;27.20;11.20;;;;;;;;;;5056127;28;20155;-78
2022/11/26 13:46:12;;;;;;;25.95;11.07;;;;;;;;;;5053470;28;20127;-78
2022/11/26 13:48:41;;;;;;;31.10;11.45;;;;;;;;;;5053183;28;20045;-80
2022/11/26 13:51:30;;;;;;;29.83;10.50;;;;;;;;;;5055174;28;20033;-81
2022/11/26 13:54:01;;;;;;;26.40;10.68;;;;;;;;;;5026385;28;20041;-81
2022/11/26 13:56:31;;;;;;;23.45;9.85;;;;;;;;;;5053923;28;20498;-81
2022/11/26 13:59:03;;;;;;;31.00;9.77;;;;;;;;;;5036987;28;20128;-81
2022/11/26 14:01:32;;;;;;;29.75;9.57;;;;;;;;;;5053212;28;20397;-80
2022/11/26 14:03:59;;;;;;;32.53;9.10;;;;;;;;;;5040644;28;20131;-81
2022/11/26 14:06:26;;;;;;;26.90;9.38;;;;;;;;;;5053039;28;20041;-80
2022/11/26 14:08:53;;;;;;;24.38;8.75;;;;;;;;;;5036633;28;20087;-78
2022/11/26 14:11:38;;;;;;;30.65;8.70;;;;;;;;;;5052893;28;20175;-78
2022/11/26 14:14:23;;;;;;;28.95;9.38;;;;;;;;;;5053355;28;20438;-78
2022/11/26 14:17:01;;;;;;;24.48;9.25;;;;;;;;;;5053315;28;20036;-81
2022/11/26 14:19:40;;;;;;;27.50;9.85;;;;;;;;;;5039873;28;20052;-80
2022/11/26 14:22:06;;;;;;;22.02;8.95;;;;;;;;;;5052594;28;20119;-81
2022/11/26 14:24:53;;;;;;;26.73;10.95;;;;;;;;;;5040877;28;20059;-78
2022/11/26 14:27:20;;;;;;;27.83;9.40;;;;;;;;;;5038752;28;20041;-78
2022/11/26 14:29:49;;;;;;;24.05;10.18;;;;;;;;;;5054150;28;20040;-79
2022/11/26 14:32:17;;;;;;;27.17;9.95;;;;;;;;;;5052873;28;20049;-78
2022/11/26 14:34:53;;;;;;;28.80;10.45;;;;;;;;;;5036132;28;20059;-78
2022/11/26 14:37:20;;;;;;;23.45;9.95;;;;;;;;;;5052789;28;20056;-78